Latest Weather Observations for Dalwallinu

IDW60801

Issued at 5:53 am WST Wednesday 8 December 2021 (issued every 10 minutes, with the page automatically refreshed every 10 minutes)

About weather observations | Map of weather stations | Latest weather observations for WA | Other Formats
Station Details ID: 008297 Name: DALWALLINU Lat: -30.28 Lon: 116.67 Height: 324.5 m
Data from the previous 72 hours. | See also: Recent months at Dalwallinu
Date/Time
WST
Temp
°C
App
Temp
°C
Dew
Point
°C
Rel
Hum
%
Delta-T
°C
Wind Press
QNH
hPa
Press
MSL
hPa
Rain since
9am
mm
Dir  Spd
km/h
Gust
km/h
Spd
kts
Gust
kts
08/05:30am 23.6 19.0 9.6 41 7.7 ENE 24 32 13 17 1011.8 1010.0 2.4
08/05:00am 23.7 18.7 9.7 41 7.8 NE 26 41 14 22 1011.1 1009.4 2.4
08/04:30am 23.8 18.6 10.1 42 7.6 NE 28 37 15 20 1011.0 1009.3 2.4
08/04:00am 24.1 19.3 10.4 42 7.7 NE 26 39 14 21 1011.1 1009.4 2.4
08/03:30am 24.1 19.0 10.7 43 7.6 NE 28 37 15 20 1011.0 1009.3 2.4
08/03:19am 24.2 19.2 10.8 43 7.6 NE 28 46 15 25 1011.0 1009.3 2.4
08/03:00am 24.7 18.8 10.6 41 8.0 NE 32 43 17 23 1010.8 1009.1 2.4
08/02:30am 24.9 19.2 11.1 42 7.9 NE 32 43 17 23 1011.2 1009.5 2.4
08/02:00am 24.6 20.3 11.9 45 7.3 ENE 26 39 14 21 1011.3 1009.6 2.4
08/01:30am 25.0 19.9 11.9 44 7.6 ENE 30 41 16 22 1011.4 1009.7 2.4
08/01:00am 25.4 21.0 11.6 42 8.0 ENE 26 39 14 21 1011.4 1009.7 2.4
08/12:30am 25.1 20.9 12.3 45 7.5 ENE 26 39 14 21 1011.3 1009.6 2.4
08/12:00am 24.0 21.4 13.2 50 6.4 ENE 19 26 10 14 1011.5 1009.8 2.4
 
Date/Time
WST
Temp
°C
App
Temp
°C
Dew
Point
°C
Rel
Hum
%
Delta-T
°C
Wind Press
QNH
hPa
Press
MSL
hPa
Rain since
9am
mm
Dir  Spd
km/h
Gust
km/h
Spd
kts
Gust
kts
07/11:30pm 23.9 21.3 13.7 52 6.0 ENE 20 28 11 15 1011.1 1009.4 2.4
07/11:00pm 24.2 21.6 13.7 52 6.2 E 20 28 11 15 1011.2 1009.5 2.4
07/10:30pm 24.6 21.1 13.5 50 6.6 E 24 33 13 18 1011.1 1009.4 2.4
07/10:00pm 24.9 21.2 13.8 50 6.6 ENE 26 35 14 19 1010.7 1009.0 2.4
07/09:30pm 24.3 22.0 15.8 59 5.2 ENE 22 32 12 17 1011.1 1009.4 2.4
07/09:00pm 23.5 21.8 16.3 64 4.4 E 20 30 11 16 1010.7 1009.0 2.4
07/08:30pm 23.0 19.8 16.3 66 4.1 ESE 28 39 15 21 1010.1 1008.4 2.4
07/08:00pm 22.4 18.6 16.7 70 3.5 NE 32 46 17 25 1011.5 1009.8 2.0
07/07:57pm 22.5 17.6 16.3 68 3.8 N 37 63 20 34 1011.9 1010.1 1.8
07/07:46pm 26.7 23.1 13.1 43 8.1 N 24 61 13 33 1011.2 1009.5 0.0
07/07:30pm 31.7 28.6 7.4 22 13.5 E 13 20 7 11 1009.7 1008.0 0.0
07/07:00pm 32.8 28.4 7.6 21 14.1 E 20 30 11 16 1009.2 1007.4 0.0
07/06:30pm 34.1 29.1 8.0 20 14.8 E 24 37 13 20 1008.9 1007.1 0.0
07/06:00pm 35.0 29.2 7.9 19 15.4 E 28 37 15 20 1008.5 1006.7 0.0
07/05:30pm 35.7 29.8 7.7 18 15.9 E 28 39 15 21 1008.6 1006.8 0.0
07/05:00pm 36.0 30.2 8.0 18 16.0 E 28 41 15 22 1008.6 1006.8 0.0
07/04:30pm 36.2 30.1 8.1 18 16.1 ENE 30 39 16 21 1008.6 1006.8 0.0
07/04:00pm 34.5 29.2 8.3 20 15.0 NE 26 35 14 19 1009.1 1007.3 0.0
07/03:30pm 35.6 29.3 7.6 18 15.9 NE 30 41 16 22 1009.3 1007.5 0.0
07/03:00pm 36.0 29.5 8.0 18 16.0 NE 32 43 17 23 1009.5 1007.8 0.0
07/02:30pm 37.8 32.9 8.6 17 17.0 ENE 24 37 13 20 1009.8 1008.1 0.0
07/02:00pm 36.5 31.6 8.4 18 16.2 ENE 24 32 13 17 1010.1 1008.4 0.0
07/01:30pm 37.0 32.9 8.8 18 16.4 ENE 20 41 11 22 1010.3 1008.6 0.0
07/01:00pm 36.3 31.7 9.8 20 15.6 ENE 24 35 13 19 1010.4 1008.7 0.0
07/12:30pm 36.4 31.5 9.8 20 15.6 ENE 26 39 14 21 1010.6 1008.9 0.0
07/12:00pm 36.2 30.6 8.9 19 15.8 ENE 28 43 15 23 1011.1 1009.4 0.0
07/11:30am 34.2 29.2 9.4 22 14.4 E 26 43 14 23 1011.8 1010.0 0.0
07/11:00am 33.5 28.1 9.5 23 13.9 E 28 39 15 21 1012.1 1010.3 0.0
07/10:38am 33.1 27.8 9.8 24 13.5 E 28 46 15 25 1012.3 1010.6 0.0
07/10:30am 31.4 25.5 9.0 25 12.7 E 30 44 16 24 1012.5 1010.8 0.0
07/10:00am 30.8 25.3 9.1 26 12.3 E 28 39 15 21 1012.7 1011.0 0.0
07/09:30am 29.4 23.9 9.0 28 11.5 E 28 43 15 23 1012.9 1011.2 0.0
07/09:00am 27.9 22.0 9.2 31 10.5 E 30 41 16 22 1013.1 1011.4 0.0
07/08:30am 25.5 19.6 8.9 35 9.1 E 30 41 16 22 1013.3 1011.6 0.0
07/08:00am 24.1 18.3 9.3 39 8.1 ESE 30 41 16 22 1013.4 1011.7 0.0
07/07:30am 22.8 17.0 9.6 43 7.3 ESE 30 43 16 23 1013.6 1011.9 0.0
07/07:00am 21.0 15.3 9.9 49 6.1 ESE 30 41 16 22 1013.3 1011.6 0.0
07/06:30am 19.4 13.7 9.9 54 5.2 ESE 30 41 16 22 1013.4 1011.7 0.0
07/06:00am 18.3 13.4 9.9 58 4.5 SE 26 35 14 19 1013.1 1011.4 0.0
07/05:30am 17.3 13.1 9.7 61 4.1 SE 22 30 12 16 1013.0 1011.3 0.0
07/05:00am 17.1 12.8 9.5 61 4.0 SE 22 33 12 18 1012.9 1011.2 0.0
07/04:30am 17.5 12.9 9.7 60 4.2 SE 24 35 13 19 1012.6 1010.9 0.0
07/04:00am 17.9 12.5 9.5 58 4.5 SE 28 39 15 21 1012.4 1010.7 0.0
07/03:35am 18.2 12.8 9.5 57 4.7 SE 28 46 15 25 1012.2 1010.5 0.0
07/03:30am 18.2 12.4 9.5 57 4.7 SE 30 43 16 23 1012.1 1010.3 0.0
07/03:00am 18.6 13.3 9.7 56 4.8 SE 28 39 15 21 1012.2 1010.5 0.0
07/02:30am 19.4 14.0 9.6 53 5.3 SE 28 39 15 21 1012.3 1010.6 0.0
07/02:00am 19.3 14.7 9.8 54 5.1 SE 24 33 13 18 1012.4 1010.7 0.0
07/01:30am 19.4 14.9 9.9 54 5.2 SE 24 32 13 17 1012.3 1010.6 0.0
07/01:00am 19.7 14.4 9.9 53 5.3 SE 28 39 15 21 1012.3 1010.6 0.0
07/12:30am 20.0 13.9 9.9 52 5.5 SE 32 43 17 23 1012.3 1010.6 0.0
07/12:00am 20.6 15.3 9.8 50 5.9 SE 28 41 15 22 1012.2 1010.5 0.0
 
Date/Time
WST
Temp
°C
App
Temp
°C
Dew
Point
°C
Rel
Hum
%
Delta-T
°C
Wind Press
QNH
hPa
Press
MSL
hPa
Rain since
9am
mm
Dir  Spd
km/h
Gust
km/h
Spd
kts
Gust
kts
06/11:30pm 21.0 15.7 9.9 49 6.1 SE 28 41 15 22 1012.2 1010.5 0.0
06/11:00pm 21.7 15.2 10.2 48 6.4 SE 35 46 19 25 1012.1 1010.3 0.0
06/10:31pm 22.8 16.5 9.6 43 7.3 SE 33 52 18 28 1012.2 1010.5 0.0
06/10:30pm 22.9 16.2 9.7 43 7.3 SE 35 52 19 28 1012.2 1010.5 0.0
06/10:00pm 23.6 17.4 9.2 40 7.9 SSE 32 44 17 24 1012.1 1010.3 0.0
06/09:30pm 25.5 17.7 8.1 33 9.4 SE 39 57 21 31 1011.8 1010.0 0.0
06/09:23pm 26.2 19.0 7.7 31 10.0 SE 35 57 19 31 1011.8 1010.0 0.0
06/09:00pm 28.1 21.8 7.4 27 11.3 SE 30 39 16 21 1011.3 1009.6 0.0
06/08:30pm 28.6 23.8 7.2 26 11.6 SSE 22 32 12 17 1010.8 1009.1 0.0
06/08:00pm 29.5 25.1 7.4 25 12.1 SE 20 28 11 15 1010.5 1008.8 0.0
06/07:30pm 30.2 25.4 7.4 24 12.5 SE 22 32 12 17 1010.3 1008.6 0.0
06/07:00pm 31.1 26.6 6.9 22 13.3 SE 20 28 11 15 1009.9 1008.2 0.0
06/06:30pm 32.6 27.8 7.4 21 14.0 SE 22 35 12 19 1009.7 1008.0 0.0
06/06:00pm 33.6 27.3 7.6 20 14.6 SE 30 39 16 21 1009.5 1007.8 0.0
06/05:48pm 34.0 28.2 7.9 20 14.7 SE 28 46 15 25 1009.4 1007.6 0.0
06/05:30pm 34.5 29.0 7.5 19 15.2 SE 26 35 14 19 1009.4 1007.6 0.0
06/05:00pm 34.9 29.5 7.9 19 15.3 SE 26 39 14 21 1009.5 1007.8 0.0
06/04:30pm 35.5 30.8 7.6 18 15.8 SE 22 35 12 19 1009.7 1008.0 0.0
06/04:00pm 35.6 29.9 8.4 19 15.6 SE 28 48 15 26 1009.9 1008.2 0.0
06/03:55pm 35.5 29.8 8.3 19 15.6 SE 28 48 15 26 1009.9 1008.2 0.0
06/03:30pm 35.6 30.7 8.4 19 15.6 SE 24 39 13 21 1010.1 1008.4 0.0
06/03:00pm 35.0 30.0 7.9 19 15.4 SE 24 37 13 20 1010.4 1008.7 0.0
06/02:30pm 34.8 29.9 8.5 20 15.1 SE 24 35 13 19 1010.7 1009.0 0.0
06/02:00pm 35.0 30.3 7.9 19 15.4 ESE 22 33 12 18 1011.0 1009.3 0.0
06/01:30pm 33.6 28.8 9.0 22 14.1 ESE 24 35 13 19 1011.4 1009.7 0.0
06/01:00pm 33.6 28.1 9.0 22 14.1 SE 28 44 15 24 1011.9 1010.1 0.0
06/12:30pm 32.1 26.2 9.0 24 13.2 ESE 30 44 16 24 1012.4 1010.7 0.0
06/12:00pm 32.3 27.2 9.2 24 13.2 ESE 26 39 14 21 1012.6 1010.9 0.0
06/11:30am 31.0 25.9 9.3 26 12.4 ESE 26 43 14 23 1012.9 1011.2 0.0
06/11:00am 29.4 23.7 8.5 27 11.7 ESE 28 44 15 24 1013.4 1011.7 0.0
06/10:30am 28.4 22.6 8.1 28 11.2 ESE 28 41 15 22 1013.5 1011.8 0.0
06/10:00am 27.6 21.3 9.0 31 10.4 ESE 32 43 17 23 1013.8 1012.1 0.0
06/09:49am 27.0 20.6 8.4 31 10.2 ESE 32 50 17 27 1013.9 1012.2 0.0
06/09:30am 26.0 19.5 8.9 34 9.4 SE 33 46 18 25 1014.0 1012.3 0.0
06/09:00am 24.4 18.0 8.4 36 8.7 ESE 32 46 17 25 1014.5 1012.8 0.0
06/08:30am 23.5 17.2 9.1 40 7.9 SE 32 43 17 23 1014.7 1013.0 0.0
06/08:00am 22.7 16.7 8.8 41 7.5 SE 30 41 16 22 1014.9 1013.1 0.0
06/07:30am 21.4 15.2 8.0 42 7.1 SE 30 43 16 23 1015.0 1013.3 0.0
06/07:00am 19.8 13.5 7.5 45 6.4 SE 30 43 16 23 1014.7 1013.0 0.0
06/06:30am 18.9 12.6 7.4 47 5.9 SE 30 41 16 22 1014.4 1012.7 0.0
06/06:00am 17.9 12.1 6.4 47 5.8 SE 26 37 14 20 1014.0 1012.3 0.0
06/05:30am 17.2 11.4 6.1 48 5.5 SE 26 33 14 18 1013.8 1012.1 0.0
06/05:00am 17.1 10.9 6.0 48 5.5 SE 28 35 15 19 1013.5 1011.8 0.0
06/04:30am 17.3 12.2 5.9 47 5.6 SE 22 32 12 17 1013.6 1011.9 0.0
06/04:00am 18.1 12.1 5.3 43 6.3 SE 26 39 14 21 1013.2 1011.5 0.0
06/03:30am 18.7 12.7 5.2 41 6.7 SE 26 35 14 19 1013.0 1011.3 0.0
06/03:00am 19.4 13.1 5.5 40 6.9 SE 28 37 15 20 1012.9 1011.2 0.0
06/02:30am 19.7 13.3 6.8 43 6.6 SE 30 39 16 21 1013.0 1011.3 0.0
06/02:00am 20.2 14.2 7.2 43 6.7 SE 28 39 15 21 1012.9 1011.2 0.0
06/01:30am 21.1 15.1 7.0 40 7.3 SE 28 37 15 20 1013.1 1011.4 0.0
06/01:00am 21.9 15.7 6.2 36 8.1 SE 28 44 15 24 1013.1 1011.4 0.0
06/12:30am 23.2 17.5 8.5 39 7.9 SE 28 37 15 20 1013.1 1011.4 0.0
06/12:00am 23.1 18.8 6.8 35 8.5 SSE 19 26 10 14 1012.9 1011.2 0.0
 
Date/Time
WST
Temp
°C
App
Temp
°C
Dew
Point
°C
Rel
Hum
%
Delta-T
°C
Wind Press
QNH
hPa
Press
MSL
hPa
Rain since
9am
mm
Dir  Spd
km/h
Gust
km/h
Spd
kts
Gust
kts
05/11:30pm 23.2 18.6 8.1 38 8.1 S 22 28 12 15 1012.8 1011.1 0.0
05/11:00pm 23.4 19.7 9.4 41 7.7 S 19 26 10 14 1012.8 1011.1 0.0
05/10:30pm 23.4 20.2 9.8 42 7.5 S 17 20 9 11 1012.9 1011.2 0.0
05/10:00pm 24.1 20.5 9.7 40 8.0 S 19 22 10 12 1012.8 1011.1 0.0
05/09:30pm 25.1 21.2 9.4 37 8.7 SSW 20 30 11 16 1012.7 1011.0 0.0
05/09:00pm 25.9 22.0 9.3 35 9.2 SSW 20 30 11 16 1012.5 1010.8 0.0
05/08:30pm 26.8 22.1 9.2 33 9.8 SSW 24 33 13 18 1012.2 1010.5 0.0
05/08:00pm 28.0 23.3 9.3 31 10.5 SSW 24 37 13 20 1011.9 1010.1 0.0
05/07:30pm 29.0 24.2 8.7 28 11.3 SSW 24 33 13 18 1011.5 1009.8 0.0
05/07:00pm 31.7 25.9 4.5 18 14.4 S 24 35 13 19 1011.0 1009.3 0.0
05/06:30pm 33.1 27.5 5.6 18 14.9 S 24 35 13 19 1010.7 1009.0 0.0
05/06:00pm 34.1 27.4 5.6 17 15.6 S 30 46 16 25 1010.4 1008.7 0.0
05/05:30pm 35.2 30.2 6.5 17 16.0 S 22 32 12 17 1010.0 1008.3 0.0
05/05:00pm 35.7 30.6 6.0 16 16.4 S 22 39 12 21 1009.8 1008.1 0.0
05/04:30pm 36.4 32.6 5.6 15 17.0 SSW 15 24 8 13 1009.8 1008.1 0.0
05/04:00pm 36.2 31.4 4.5 14 17.2 S 19 30 10 16 1010.0 1008.3 0.0
05/03:30pm 36.4 32.9 5.6 15 17.0 SE 13 26 7 14 1010.0 1008.3 0.0
05/03:00pm 36.4 32.8 6.6 16 16.7 SSE 15 32 8 17 1010.3 1008.6 0.0
05/02:30pm 36.2 31.8 6.4 16 16.6 S 19 32 10 17 1010.4 1008.7 0.0
05/02:00pm 36.3 32.8 7.4 17 16.4 SE 15 24 8 13 1010.7 1009.0 0.0
05/01:30pm 36.1 33.6 8.0 18 16.1 SSE 11 20 6 11 1011.1 1009.4 0.0
05/01:00pm 36.3 34.4 7.4 17 16.4 S 7 20 4 11 1011.4 1009.7 0.0
05/12:30pm 35.4 32.5 8.3 19 15.5 SE 13 28 7 15 1012.0 1010.2 0.0
05/12:00pm 34.9 31.7 8.6 20 15.1 WSW 15 26 8 14 1012.3 1010.6 0.0
05/11:30am 35.2 32.5 8.9 20 15.2 SE 13 28 7 15 1012.9 1011.2 0.0
05/11:00am 33.4 30.8 9.4 23 13.8 SE 13 20 7 11 1013.3 1011.6 0.0
05/10:30am 33.3 30.9 10.0 24 13.6 E 13 19 7 10 1013.6 1011.9 0.0
05/10:00am 33.1 30.6 11.0 26 13.0 ENE 15 22 8 12 1013.9 1012.2 0.0
05/09:30am 31.8 28.8 10.5 27 12.4 ENE 17 28 9 15 1014.1 1012.4 0.0
05/09:00am 30.6 26.9 10.0 28 11.8 E 20 28 11 15 1014.5 1012.8 0.0
05/08:30am 28.6 24.3 9.3 30 10.9 E 22 28 12 15 1015.1 1013.4 0.0
05/08:00am 28.0 24.1 9.3 31 10.5 E 20 28 11 15 1015.2 1013.5 0.0
05/07:30am 25.3 20.8 8.7 35 9.1 ESE 22 30 12 16 1015.3 1013.6 0.0
05/07:00am 22.3 18.4 9.5 44 7.0 SE 20 26 11 14 1015.4 1013.7 0.0
05/06:30am 20.4 17.1 9.6 50 5.9 SSE 17 24 9 13 1015.4 1013.7 0.0
05/06:00am 18.8 14.9 9.6 55 4.9 SSE 20 28 11 15 1015.2 1013.5 0.0

Other formats

Comma delimited format used in spreadsheet applications
http://www.bom.gov.au/fwo/IDW60801/IDW60801.95629.axf

JavaScript Object Notation format (JSON) in row-major order
http://www.bom.gov.au/fwo/IDW60801/IDW60801.95629.json

Data quality

Most of these data are generated automatically and are frequently updated. Quality checks on data are not normally performed. It is possible for incorrect values to appear. Refer to information at About Latest Weather Observations and please check the disclaimer before using these data.